Time;durP1;ratioP1;P1;durP2;ratioP2;P2;SDS_P1;SDS_P2;PMS_P1;PMS_P2;Temp;Humidity;BMP_temperature;BMP_pressure;BME280_temperature;BME280_humidity;BME280_pressure;Samples;Min_cycle;Max_cycle;Signal;HPM_P1;HPM_P2
2024/01/26 00:01:44;;;;;;;3.88;3.25;;;11.40;99.90;;;;;;5088737;28;20040;-62
2024/01/26 00:04:12;;;;;;;4.75;3.13;;;11.40;99.90;;;;;;5080209;28;20068;-62
2024/01/26 00:06:40;;;;;;;5.70;3.85;;;11.40;99.90;;;;;;5079743;28;20051;-64
2024/01/26 00:09:12;;;;;;;4.63;3.80;;;11.40;99.90;;;;;;5089230;28;20051;-65
2024/01/26 00:11:40;;;;;;;4.20;3.40;;;11.40;99.90;;;;;;5089258;28;20044;-65
2024/01/26 00:14:09;;;;;;;5.18;3.65;;;11.40;99.90;;;;;;5089129;28;20059;-64
2024/01/26 00:16:38;;;;;;;5.43;3.40;;;11.40;99.90;;;;;;5089450;28;20052;-62
2024/01/26 00:19:06;;;;;;;7.07;3.00;;;11.40;99.90;;;;;;5092710;28;20494;-67
2024/01/26 00:21:34;;;;;;;2.60;2.40;;;11.40;99.90;;;;;;5097577;28;20054;-63
2024/01/26 00:24:02;;;;;;;3.95;2.25;;;11.40;99.90;;;;;;5082747;28;20040;-62
2024/01/26 00:26:30;;;;;;;2.40;2.17;;;11.40;99.90;;;;;;5068312;28;20056;-65
2024/01/26 00:28:58;;;;;;;2.45;1.67;;;11.40;99.90;;;;;;5088533;28;20052;-62
2024/01/26 00:31:26;;;;;;;2.63;1.80;;;11.50;99.90;;;;;;5078014;28;20711;-63
2024/01/26 00:33:54;;;;;;;1.67;1.38;;;11.40;99.90;;;;;;5082399;28;20058;-63
2024/01/26 00:36:22;;;;;;;2.67;1.38;;;11.50;99.90;;;;;;5080836;28;20051;-64
2024/01/26 00:38:49;;;;;;;1.08;1.00;;;11.50;99.90;;;;;;5085380;28;20039;-62
2024/01/26 00:41:17;;;;;;;1.15;1.00;;;11.50;99.90;;;;;;5085974;28;20051;-65
2024/01/26 00:43:44;;;;;;;0.80;0.80;;;11.50;99.90;;;;;;5088583;28;20051;-63
2024/01/26 00:46:12;;;;;;;1.27;0.80;;;11.50;99.90;;;;;;5089034;28;20044;-62
2024/01/26 00:48:40;;;;;;;1.30;0.60;;;11.50;99.90;;;;;;5095635;28;20055;-63
2024/01/26 00:51:09;;;;;;;0.50;0.50;;;11.60;99.90;;;;;;5081484;28;20412;-62
2024/01/26 00:53:37;;;;;;;0.77;0.40;;;11.60;99.90;;;;;;5078107;28;20043;-63
2024/01/26 00:56:05;;;;;;;1.77;0.85;;;11.60;99.90;;;;;;5088296;28;20134;-62
2024/01/26 00:58:33;;;;;;;3.10;0.30;;;11.60;99.90;;;;;;5074659;28;20055;-66
2024/01/26 01:01:02;;;;;;;0.85;0.30;;;11.60;99.90;;;;;;5087254;28;20399;-66
2024/01/26 01:03:30;;;;;;;0.20;0.20;;;11.60;99.90;;;;;;5082492;28;20052;-60
2024/01/26 01:05:58;;;;;;;0.50;0.30;;;11.60;99.90;;;;;;5085093;28;20391;-62
2024/01/26 01:08:26;;;;;;;1.02;0.20;;;11.60;99.90;;;;;;5097426;28;20048;-62
2024/01/26 01:10:54;;;;;;;0.90;0.15;;;11.60;99.90;;;;;;5088467;28;20052;-62
2024/01/26 01:13:21;;;;;;;0.15;0.15;;;11.60;99.90;;;;;;5088027;28;20043;-62
2024/01/26 01:15:49;;;;;;;1.08;0.28;;;11.60;99.90;;;;;;5077439;28;20036;-63
2024/01/26 01:18:18;;;;;;;1.65;0.13;;;11.50;99.90;;;;;;5074197;28;20047;-62
2024/01/26 01:20:46;;;;;;;2.38;0.15;;;11.50;99.90;;;;;;5088085;28;20044;-64
2024/01/26 01:23:15;;;;;;;2.97;0.10;;;11.40;99.90;;;;;;5076912;28;20048;-62
2024/01/26 01:25:43;;;;;;;0.65;0.10;;;11.30;99.90;;;;;;5088129;28;20044;-62
2024/01/26 01:28:10;;;;;;;3.78;0.60;;;11.20;99.90;;;;;;5090534;28;20056;-62
2024/01/26 01:30:38;;;;;;;0.10;0.10;;;11.10;99.90;;;;;;5088017;28;20664;-62
2024/01/26 01:33:06;;;;;;;2.67;0.30;;;11.00;99.90;;;;;;5087705;28;20047;-62
2024/01/26 01:35:34;;;;;;;0.60;0.20;;;10.90;99.90;;;;;;5087581;28;20063;-65
2024/01/26 01:38:02;;;;;;;1.10;0.20;;;10.90;99.90;;;;;;5074753;28;20044;-64
2024/01/26 01:40:29;;;;;;;2.30;0.38;;;10.80;99.90;;;;;;5088438;28;20386;-63
2024/01/26 01:42:58;;;;;;;1.17;0.25;;;10.80;99.90;;;;;;5091026;28;20479;-62
2024/01/26 01:45:25;;;;;;;2.95;0.40;;;10.70;99.90;;;;;;5091443;28;20044;-62
2024/01/26 01:47:53;;;;;;;1.95;0.43;;;10.70;99.90;;;;;;5089371;28;20071;-62
2024/01/26 01:50:20;;;;;;;3.67;0.50;;;10.60;99.90;;;;;;5092072;28;20044;-65
2024/01/26 01:52:50;;;;;;;6.32;0.60;;;10.70;99.90;;;;;;5089359;28;20043;-62
2024/01/26 01:55:18;;;;;;;4.60;0.55;;;10.60;99.90;;;;;;5076126;28;20052;-63
2024/01/26 01:57:48;;;;;;;2.92;1.08;;;10.70;99.90;;;;;;5092092;28;20055;-63
2024/01/26 02:00:16;;;;;;;3.40;0.20;;;10.70;99.90;;;;;;5111882;28;20052;-70
2024/01/26 02:02:46;;;;;;;4.80;0.52;;;10.70;99.90;;;;;;5092566;28;20071;-62
2024/01/26 02:05:14;;;;;;;2.00;0.30;;;10.80;99.90;;;;;;5092139;28;20040;-62
2024/01/26 02:07:50;;;;;;;1.58;0.22;;;10.90;99.90;;;;;;5086368;28;20301;-62
2024/01/26 02:10:18;;;;;;;2.10;0.30;;;10.90;99.90;;;;;;5071485;28;20048;-62
2024/01/26 02:12:46;;;;;;;5.43;0.63;;;11.00;99.90;;;;;;5088608;28;21201;-71
2024/01/26 02:15:14;;;;;;;0.90;0.20;;;11.00;99.90;;;;;;5090316;28;20498;-62
2024/01/26 02:17:50;;;;;;;7.30;1.10;;;11.00;99.90;;;;;;5089890;28;20040;-62
2024/01/26 02:20:22;;;;;;;2.38;0.68;;;11.00;99.90;;;;;;5071031;28;20052;-62
2024/01/26 02:23:15;;;;;;;1.83;0.43;;;11.00;99.90;;;;;;5076105;28;20043;-62
2024/01/26 02:25:43;;;;;;;7.60;0.80;;;11.10;99.90;;;;;;5077906;28;20048;-62
2024/01/26 02:28:10;;;;;;;3.80;0.50;;;11.00;99.90;;;;;;5074678;28;20052;-64
2024/01/26 02:30:38;;;;;;;9.90;1.05;;;11.10;99.90;;;;;;5102322;28;20040;-62
2024/01/26 02:33:05;;;;;;;3.22;0.68;;;11.10;99.90;;;;;;5073551;28;20064;-62
2024/01/26 02:35:33;;;;;;;3.45;0.80;;;11.10;99.90;;;;;;5074195;28;20052;-62
2024/01/26 02:38:01;;;;;;;4.22;0.63;;;11.10;99.90;;;;;;5096330;28;20051;-67
2024/01/26 02:40:29;;;;;;;5.65;0.73;;;11.10;99.90;;;;;;5078129;28;20047;-62
2024/01/26 02:42:57;;;;;;;6.53;0.88;;;11.10;99.90;;;;;;5094129;28;20488;-62
2024/01/26 02:45:25;;;;;;;9.93;1.08;;;11.10;99.90;;;;;;5091111;28;20052;-62
2024/01/26 02:47:53;;;;;;;1.25;0.40;;;11.10;99.90;;;;;;5090691;28;20055;-62
2024/01/26 02:50:22;;;;;;;2.77;0.70;;;11.00;99.90;;;;;;5094072;28;20048;-61
2024/01/26 02:52:49;;;;;;;3.30;0.55;;;11.10;99.90;;;;;;5092973;28;20044;-61
2024/01/26 02:55:17;;;;;;;7.18;1.20;;;11.10;99.90;;;;;;5092910;28;20403;-61
2024/01/26 02:57:45;;;;;;;16.40;1.42;;;11.00;99.90;;;;;;5093650;28;20530;-63
2024/01/26 03:00:13;;;;;;;6.22;0.90;;;11.10;99.90;;;;;;5092946;28;20055;-64
2024/01/26 03:02:40;;;;;;;5.95;0.77;;;11.00;99.90;;;;;;5079412;28;20044;-62
2024/01/26 03:05:08;;;;;;;9.88;1.10;;;11.00;99.90;;;;;;5074015;28;20048;-62
2024/01/26 03:07:36;;;;;;;6.30;1.00;;;11.00;99.90;;;;;;5095646;28;20047;-65
2024/01/26 03:10:04;;;;;;;9.23;1.58;;;11.00;99.90;;;;;;5095293;28;20491;-63
2024/01/26 03:12:33;;;;;;;10.93;1.30;;;10.90;99.90;;;;;;5088507;28;20051;-65
2024/01/26 03:15:01;;;;;;;9.45;1.45;;;11.00;99.90;;;;;;5093896;28;20047;-70
2024/01/26 03:17:30;;;;;;;11.98;1.83;;;10.90;99.90;;;;;;5093649;28;20056;-65
2024/01/26 03:19:58;;;;;;;9.25;1.92;;;10.80;99.90;;;;;;5093779;28;20040;-62
2024/01/26 03:22:26;;;;;;;5.57;1.05;;;10.60;99.90;;;;;;5093596;28;20044;-62
2024/01/26 03:24:53;;;;;;;11.63;1.30;;;10.50;99.90;;;;;;5093718;28;20056;-63
2024/01/26 03:27:21;;;;;;;8.73;1.45;;;10.30;99.90;;;;;;5093428;28;20384;-62
2024/01/26 03:29:48;;;;;;;5.88;1.05;;;10.20;99.90;;;;;;5092933;28;20495;-62
2024/01/26 03:32:16;;;;;;;4.80;0.80;;;10.10;99.90;;;;;;5092810;28;20035;-70
2024/01/26 03:34:44;;;;;;;10.40;1.27;;;9.90;99.90;;;;;;5093403;28;20388;-62
2024/01/26 03:37:11;;;;;;;5.72;0.93;;;9.90;99.90;;;;;;5099861;28;20043;-62
2024/01/26 03:39:39;;;;;;;5.22;0.90;;;9.80;99.90;;;;;;5113824;28;20051;-62
2024/01/26 03:42:10;;;;;;;1.45;0.20;;;9.70;99.90;;;;;;5101976;28;20051;-67
2024/01/26 03:44:38;;;;;;;3.97;0.47;;;9.60;99.90;;;;;;5093149;28;20048;-62
2024/01/26 03:47:06;;;;;;;2.78;0.50;;;9.40;99.90;;;;;;5093264;28;20048;-61
2024/01/26 03:49:33;;;;;;;2.75;0.30;;;9.20;99.90;;;;;;5093403;28;20388;-61
2024/01/26 03:52:04;;;;;;;3.47;0.28;;;9.00;99.90;;;;;;5093046;28;20048;-62
2024/01/26 03:54:32;;;;;;;1.00;0.10;;;8.70;99.90;;;;;;5091965;28;20593;-62
2024/01/26 03:56:59;;;;;;;0.60;0.28;;;8.50;99.90;;;;;;5092985;28;20055;-63
2024/01/26 03:59:27;;;;;;;0.80;0.25;;;8.30;99.90;;;;;;5092985;28;20044;-61
2024/01/26 04:01:54;;;;;;;0.88;0.10;;;8.20;99.90;;;;;;5099754;28;20044;-62
2024/01/26 04:04:22;;;;;;;2.72;0.20;;;8.00;99.90;;;;;;5090061;28;20059;-61
2024/01/26 04:06:50;;;;;;;3.55;0.32;;;7.80;99.90;;;;;;5084070;28;20058;-61
2024/01/26 04:09:18;;;;;;;1.73;0.10;;;7.70;99.90;;;;;;5113209;28;20426;-62
2024/01/26 04:11:45;;;;;;;5.75;0.40;;;7.50;99.90;;;;;;5095736;28;20055;-61
2024/01/26 04:14:13;;;;;;;1.98;0.10;;;7.40;99.90;;;;;;5092783;28;20380;-62
2024/01/26 04:16:41;;;;;;;1.70;0.35;;;7.30;99.90;;;;;;5092582;28;20407;-62
2024/01/26 04:19:09;;;;;;;0.80;0.20;;;7.20;99.90;;;;;;5092603;28;20396;-66
2024/01/26 04:21:37;;;;;;;0.57;0.10;;;7.10;99.90;;;;;;5096843;28;20047;-62
2024/01/26 04:24:05;;;;;;;4.45;0.30;;;7.00;99.90;;;;;;5092316;28;20047;-64
2024/01/26 04:26:33;;;;;;;2.22;0.30;;;6.90;99.90;;;;;;5092159;28;20471;-62
2024/01/26 04:29:01;;;;;;;2.63;0.13;;;6.80;99.90;;;;;;5092376;28;20070;-63
2024/01/26 04:31:28;;;;;;;0.73;0.20;;;6.80;99.90;;;;;;5090213;28;20506;-61
2024/01/26 04:33:56;;;;;;;1.83;0.30;;;6.70;99.90;;;;;;5092487;28;20036;-62
2024/01/26 04:36:24;;;;;;;0.68;0.30;;;6.70;99.90;;;;;;5093227;28;20051;-62
2024/01/26 04:38:52;;;;;;;4.07;0.77;;;6.70;99.90;;;;;;5091339;28;20051;-62
2024/01/26 04:41:19;;;;;;;3.78;0.30;;;6.60;99.90;;;;;;5092244;28;20044;-62
2024/01/26 04:43:47;;;;;;;3.63;0.30;;;6.70;99.90;;;;;;5091365;28;20051;-62
2024/01/26 04:46:14;;;;;;;0.63;0.10;;;6.70;99.90;;;;;;5092249;28;20508;-61
2024/01/26 04:48:42;;;;;;;0.90;0.25;;;6.70;99.90;;;;;;5090706;28;20040;-61
2024/01/26 04:51:10;;;;;;;4.53;0.93;;;6.70;99.90;;;;;;5091961;28;20059;-61
2024/01/26 04:53:37;;;;;;;2.38;0.22;;;6.70;99.90;;;;;;5091970;28;20043;-61
2024/01/26 04:56:09;;;;;;;2.00;0.30;;;6.70;99.90;;;;;;5091847;28;20055;-63
2024/01/26 04:58:36;;;;;;;2.45;0.30;;;6.70;99.90;;;;;;5091766;28;20391;-63
2024/01/26 05:01:04;;;;;;;3.33;0.50;;;6.60;99.90;;;;;;5091961;28;20059;-65
2024/01/26 05:03:31;;;;;;;2.78;0.50;;;6.60;99.90;;;;;;5091610;28;20392;-62
2024/01/26 05:06:00;;;;;;;4.32;0.35;;;6.60;99.90;;;;;;5088232;28;20502;-62
2024/01/26 05:08:28;;;;;;;4.38;0.50;;;6.60;99.90;;;;;;5092660;28;20036;-65
2024/01/26 05:10:56;;;;;;;2.70;0.60;;;6.50;99.90;;;;;;5091394;28;20048;-64
2024/01/26 05:13:23;;;;;;;3.92;0.73;;;6.50;99.90;;;;;;5089181;28;20043;-64
2024/01/26 05:15:51;;;;;;;6.47;0.65;;;6.40;99.90;;;;;;5091824;28;20051;-63
2024/01/26 05:18:18;;;;;;;6.60;1.10;;;6.40;99.90;;;;;;5091233;28;20055;-62
2024/01/26 05:20:46;;;;;;;8.85;1.13;;;6.30;99.90;;;;;;5090941;28;20063;-62
2024/01/26 05:23:14;;;;;;;7.55;1.08;;;6.20;99.90;;;;;;5090780;28;20502;-63
2024/01/26 05:25:42;;;;;;;6.50;0.70;;;6.20;99.90;;;;;;5091419;28;20549;-62
2024/01/26 05:28:09;;;;;;;6.63;1.33;;;6.20;99.90;;;;;;5090423;28;20043;-62
2024/01/26 05:30:37;;;;;;;3.33;0.82;;;6.20;99.90;;;;;;5091353;28;20067;-63
2024/01/26 05:33:05;;;;;;;9.57;1.05;;;6.10;99.90;;;;;;5091533;28;20051;-63
2024/01/26 05:35:33;;;;;;;3.80;0.40;;;6.10;99.90;;;;;;5091436;28;20055;-63
2024/01/26 05:38:00;;;;;;;3.80;0.68;;;6.10;99.90;;;;;;5105683;28;20051;-68
2024/01/26 05:40:28;;;;;;;3.85;1.00;;;6.10;99.90;;;;;;5111917;28;20648;-69
2024/01/26 05:42:56;;;;;;;11.35;1.17;;;6.10;99.90;;;;;;5094772;28;20056;-67
2024/01/26 05:45:23;;;;;;;4.03;0.50;;;6.20;99.90;;;;;;5091665;28;20422;-64
2024/01/26 05:47:52;;;;;;;3.92;0.70;;;6.30;99.90;;;;;;5081114;28;20048;-71
2024/01/26 05:50:21;;;;;;;1.80;0.63;;;6.30;99.90;;;;;;5075000;28;20044;-63
2024/01/26 05:52:49;;;;;;;32.33;1.60;;;6.30;99.90;;;;;;5087592;28;20048;-63
2024/01/26 05:55:16;;;;;;;5.47;0.55;;;6.40;99.90;;;;;;5087942;28;20311;-60
2024/01/26 05:57:44;;;;;;;5.25;1.20;;;6.40;99.90;;;;;;5091751;28;20646;-63
2024/01/26 06:00:12;;;;;;;5.05;0.52;;;6.30;99.90;;;;;;5086491;28;20395;-62
2024/01/26 06:02:45;;;;;;;4.53;0.55;;;6.20;99.90;;;;;;5069789;28;20551;-63
2024/01/26 06:05:13;;;;;;;3.00;1.05;;;6.20;99.90;;;;;;5064593;28;20400;-63
2024/01/26 06:07:41;;;;;;;4.05;1.55;;;6.20;99.90;;;;;;5082306;28;20052;-63
2024/01/26 06:10:09;;;;;;;5.47;0.98;;;6.20;99.90;;;;;;5084145;28;20051;-65
2024/01/26 06:12:40;;;;;;;9.00;0.98;;;6.10;99.90;;;;;;5082713;28;20060;-72
2024/01/26 06:15:11;;;;;;;3.95;0.63;;;6.20;99.90;;;;;;5066272;28;20051;-68
2024/01/26 06:17:39;;;;;;;16.15;1.67;;;6.00;99.90;;;;;;5070262;28;20049;-67
2024/01/26 06:20:08;;;;;;;6.53;0.65;;;6.00;99.90;;;;;;5069711;28;20051;-63
2024/01/26 06:22:37;;;;;;;4.60;0.70;;;6.00;99.90;;;;;;5081301;28;20044;-64
2024/01/26 06:25:04;;;;;;;9.17;0.83;;;6.00;99.90;;;;;;5067522;28;20061;-63
2024/01/26 06:27:32;;;;;;;7.88;1.35;;;6.00;99.90;;;;;;5091373;28;20295;-63
2024/01/26 06:30:00;;;;;;;13.43;2.35;;;6.00;99.90;;;;;;5089643;28;20974;-61
2024/01/26 06:32:27;;;;;;;6.50;0.82;;;5.90;99.90;;;;;;5078295;28;20518;-63
2024/01/26 06:34:55;;;;;;;7.70;0.63;;;5.90;99.90;;;;;;5072456;28;20044;-62
2024/01/26 06:37:23;;;;;;;9.65;1.23;;;5.80;99.90;;;;;;5085223;28;20251;-62
2024/01/26 06:39:51;;;;;;;6.47;0.68;;;5.70;99.90;;;;;;5097074;28;20040;-62
2024/01/26 06:42:25;;;;;;;11.48;1.48;;;5.70;99.90;;;;;;5077357;28;20048;-62
2024/01/26 06:44:55;;;;;;;7.20;0.70;;;5.70;99.90;;;;;;5091113;28;20185;-61
2024/01/26 06:47:23;;;;;;;7.85;1.10;;;5.70;99.90;;;;;;5093419;28;20048;-61
2024/01/26 06:49:51;;;;;;;4.97;0.95;;;5.60;99.90;;;;;;5081808;28;20039;-62
2024/01/26 06:52:18;;;;;;;11.88;1.25;;;5.60;99.90;;;;;;5082294;28;20631;-62
2024/01/26 06:54:46;;;;;;;7.45;1.00;;;5.60;99.90;;;;;;5088899;28;20047;-66
2024/01/26 06:57:13;;;;;;;5.13;0.85;;;5.60;99.90;;;;;;5079007;28;20143;-62
2024/01/26 06:59:41;;;;;;;7.20;1.20;;;5.50;99.90;;;;;;5081012;28;20059;-63
2024/01/26 07:02:10;;;;;;;8.52;1.10;;;5.50;99.90;;;;;;5082142;28;20051;-62
2024/01/26 07:04:37;;;;;;;4.40;0.63;;;5.50;99.90;;;;;;5069630;28;20044;-62
2024/01/26 07:07:05;;;;;;;5.30;1.45;;;5.50;99.90;;;;;;5089571;28;20050;-63
2024/01/26 07:09:33;;;;;;;6.80;0.90;;;5.50;99.90;;;;;;5081088;28;20048;-62
2024/01/26 07:12:03;;;;;;;10.43;1.25;;;5.50;99.90;;;;;;5077382;28;20055;-65
2024/01/26 07:14:30;;;;;;;;;;;5.40;99.90;;;;;;5080927;28;20502;-64
2024/01/26 07:16:58;;;;;;;11.80;1.60;;;5.40;99.90;;;;;;5084001;28;19928;-66
2024/01/26 07:19:26;;;;;;;8.20;2.10;;;5.30;99.90;;;;;;5080334;28;20051;-63
2024/01/26 07:21:53;;;;;;;9.75;1.13;;;5.30;99.90;;;;;;5086409;28;20059;-63
2024/01/26 07:24:21;;;;;;;3.28;0.60;;;5.20;99.90;;;;;;5092338;28;20048;-64
2024/01/26 07:26:49;;;;;;;19.65;1.95;;;5.20;99.90;;;;;;5088049;28;20056;-62
2024/01/26 07:29:17;;;;;;;12.07;1.40;;;5.10;99.90;;;;;;5083582;28;20044;-63
2024/01/26 07:31:46;;;;;;;10.98;1.35;;;5.10;99.90;;;;;;5083337;28;20411;-64
2024/01/26 07:34:14;;;;;;;15.07;1.40;;;5.10;99.90;;;;;;5080333;28;20044;-63
2024/01/26 07:36:42;;;;;;;3.90;0.70;;;5.00;99.90;;;;;;5076130;28;20043;-63
2024/01/26 07:39:10;;;;;;;9.40;1.08;;;5.00;99.90;;;;;;5091457;28;20526;-63
2024/01/26 07:41:37;;;;;;;5.95;0.63;;;5.00;99.90;;;;;;5089755;28;20054;-64
2024/01/26 07:44:05;;;;;;;8.30;1.20;;;5.00;99.90;;;;;;5089509;28;20044;-63
2024/01/26 07:46:33;;;;;;;6.55;0.52;;;5.00;99.90;;;;;;5080845;28;20613;-62
2024/01/26 07:49:00;;;;;;;7.07;1.27;;;5.00;99.90;;;;;;5074289;28;20048;-68
2024/01/26 07:51:29;;;;;;;14.55;2.22;;;4.90;99.90;;;;;;5072066;28;20064;-63
2024/01/26 07:53:57;;;;;;;12.70;1.50;;;4.90;99.90;;;;;;5081109;28;20040;-62
2024/01/26 07:56:24;;;;;;;8.23;1.48;;;4.90;99.90;;;;;;5073017;28;20076;-63
2024/01/26 07:58:52;;;;;;;5.10;0.63;;;4.90;99.90;;;;;;5082465;28;20040;-62
2024/01/26 08:01:20;;;;;;;11.48;1.02;;;4.80;99.90;;;;;;5088242;28;20530;-63
2024/01/26 08:03:48;;;;;;;7.68;1.15;;;4.80;99.90;;;;;;5089685;28;20048;-63
2024/01/26 08:06:17;;;;;;;8.75;1.05;;;4.80;99.90;;;;;;5067310;28;20056;-62
2024/01/26 08:08:45;;;;;;;13.25;1.80;;;4.70;99.90;;;;;;5061418;28;20595;-63
2024/01/26 08:11:19;;;;;;;5.03;1.00;;;4.70;99.90;;;;;;5070222;28;20556;-63
2024/01/26 08:13:47;;;;;;;5.55;1.13;;;4.60;99.90;;;;;;5087976;28;20404;-62
2024/01/26 08:16:18;;;;;;;7.55;1.27;;;4.60;99.90;;;;;;5088315;28;20051;-63
2024/01/26 08:18:46;;;;;;;17.55;1.92;;;4.60;99.90;;;;;;5077854;28;20055;-63
2024/01/26 08:21:14;;;;;;;8.02;1.15;;;4.60;99.90;;;;;;5089229;28;20048;-63
2024/01/26 08:23:42;;;;;;;11.90;1.23;;;4.50;99.90;;;;;;5084001;28;20036;-69
2024/01/26 08:26:10;;;;;;;9.02;1.63;;;4.60;99.90;;;;;;5089156;28;20048;-68
2024/01/26 08:28:37;;;;;;;10.25;2.15;;;4.50;99.90;;;;;;5088513;28;20040;-72
2024/01/26 08:31:05;;;;;;;11.32;1.13;;;4.50;99.90;;;;;;5089439;28;20047;-64
2024/01/26 08:33:33;;;;;;;15.57;2.22;;;4.50;99.90;;;;;;5081741;28;20203;-61
2024/01/26 08:36:01;;;;;;;7.25;1.73;;;4.50;99.90;;;;;;5069517;28;20495;-62
2024/01/26 08:38:29;;;;;;;6.88;3.03;;;4.50;99.90;;;;;;5093258;28;20369;-63
2024/01/26 08:40:58;;;;;;;8.93;1.25;;;4.50;99.90;;;;;;5086899;28;20036;-62
2024/01/26 08:43:26;;;;;;;9.32;1.30;;;4.50;99.90;;;;;;5088477;28;20044;-64
2024/01/26 08:45:53;;;;;;;13.70;1.88;;;4.60;99.90;;;;;;5087501;28;20047;-63
2024/01/26 08:48:21;;;;;;;10.20;1.52;;;4.60;99.90;;;;;;5094775;28;20628;-64
2024/01/26 08:50:49;;;;;;;9.68;1.63;;;4.60;99.90;;;;;;5064506;28;20051;-70
2024/01/26 08:53:17;;;;;;;17.05;1.58;;;4.60;99.90;;;;;;5071789;28;20403;-65
2024/01/26 08:55:44;;;;;;;9.45;1.23;;;4.60;99.90;;;;;;5065593;28;20059;-63
2024/01/26 08:58:12;;;;;;;6.38;1.48;;;4.70;99.90;;;;;;5075767;28;20045;-62
2024/01/26 09:00:40;;;;;;;9.75;1.67;;;4.60;99.90;;;;;;5068173;28;20048;-66
2024/01/26 09:03:08;;;;;;;8.48;1.83;;;4.60;99.90;;;;;;5093396;28;20394;-63
2024/01/26 09:05:35;;;;;;;9.90;2.25;;;4.70;99.90;;;;;;5084056;28;20048;-72
2024/01/26 09:08:04;;;;;;;8.32;1.98;;;4.70;99.90;;;;;;5093244;28;20052;-68
2024/01/26 09:10:31;;;;;;;10.88;1.88;;;4.70;99.90;;;;;;5080227;28;20064;-68
2024/01/26 09:12:59;;;;;;;9.20;1.17;;;4.70;99.90;;;;;;5081250;28;20510;-63
2024/01/26 09:15:27;;;;;;;8.30;1.10;;;4.70;99.90;;;;;;5086238;28;20039;-63
2024/01/26 09:17:55;;;;;;;8.93;1.45;;;4.80;99.90;;;;;;5094162;28;20062;-63
2024/01/26 09:20:22;;;;;;;8.65;1.10;;;4.80;99.90;;;;;;5084073;28;20044;-63
2024/01/26 09:22:50;;;;;;;15.25;2.78;;;4.90;99.90;;;;;;5088017;28;20633;-71
2024/01/26 09:25:18;;;;;;;7.15;1.42;;;4.90;99.90;;;;;;5070548;28;20419;-65
2024/01/26 09:27:45;;;;;;;10.35;1.70;;;5.00;99.90;;;;;;5077118;28;20050;-69
2024/01/26 09:30:13;;;;;;;5.75;1.23;;;5.00;99.90;;;;;;5074113;28;20044;-70
2024/01/26 09:32:41;;;;;;;14.20;1.67;;;5.10;99.90;;;;;;5086172;28;20384;-67
2024/01/26 09:35:09;;;;;;;14.20;2.22;;;5.10;99.90;;;;;;5069238;28;20071;-66
2024/01/26 09:37:38;;;;;;;9.70;1.67;;;5.10;99.90;;;;;;5090185;28;20510;-62
2024/01/26 09:40:06;;;;;;;10.45;1.83;;;5.20;99.90;;;;;;5108309;28;20051;-62
2024/01/26 09:42:34;;;;;;;10.63;1.55;;;5.20;99.90;;;;;;5088203;28;20044;-64
2024/01/26 09:45:04;;;;;;;12.48;1.63;;;5.20;99.90;;;;;;5088207;28;20052;-62
2024/01/26 09:47:34;;;;;;;14.60;1.92;;;5.30;99.90;;;;;;5089615;28;20048;-63
2024/01/26 09:50:04;;;;;;;17.17;1.70;;;5.30;99.90;;;;;;5092108;28;20059;-62
2024/01/26 09:52:36;;;;;;;15.77;1.90;;;5.40;99.90;;;;;;5077937;28;20048;-62
2024/01/26 09:55:05;;;;;;;14.15;1.55;;;5.40;99.90;;;;;;5087937;28;20047;-61
2024/01/26 09:57:33;;;;;;;6.60;1.23;;;5.50;99.90;;;;;;5090612;28;20052;-61
2024/01/26 10:00:04;;;;;;;11.25;2.35;;;5.50;99.90;;;;;;5108198;28;20051;-63
2024/01/26 10:02:32;;;;;;;4.40;1.30;;;5.60;99.90;;;;;;5085132;28;20500;-62
2024/01/26 10:05:00;;;;;;;9.35;1.33;;;5.60;99.90;;;;;;5072818;28;20480;-63
2024/01/26 10:07:28;;;;;;;14.13;1.50;;;5.70;99.90;;;;;;5083459;28;20063;-62
2024/01/26 10:09:55;;;;;;;8.18;1.33;;;5.80;99.90;;;;;;5070895;28;20052;-62
2024/01/26 10:12:23;;;;;;;9.20;1.52;;;5.80;99.90;;;;;;5088765;28;20052;-62
2024/01/26 10:15:08;;;;;;;4.97;1.27;;;5.90;99.90;;;;;;5111870;28;20055;-63
2024/01/26 10:17:37;;;;;;;15.93;1.85;;;5.90;99.90;;;;;;5109314;28;20490;-64
2024/01/26 10:20:14;;;;;;;9.32;0.90;;;6.00;99.90;;;;;;5096154;28;20060;-62
2024/01/26 10:22:43;;;;;;;7.75;1.13;;;6.00;99.90;;;;;;5083682;28;20044;-61
2024/01/26 10:25:13;;;;;;;4.97;0.73;;;6.10;99.90;;;;;;5091599;28;20063;-62
2024/01/26 10:27:41;;;;;;;14.75;2.13;;;6.20;99.90;;;;;;5095009;28;20047;-62
2024/01/26 10:30:11;;;;;;;12.40;1.35;;;6.20;99.90;;;;;;5109244;28;20071;-64
2024/01/26 10:32:43;;;;;;;12.27;2.13;;;6.30;99.90;;;;;;5089322;28;20051;-62
2024/01/26 10:35:11;;;;;;;10.32;1.10;;;6.40;99.90;;;;;;5082521;28;20048;-62
2024/01/26 10:37:40;;;;;;;9.88;1.77;;;6.40;99.90;;;;;;5093529;28;20048;-63
2024/01/26 10:40:10;;;;;;;11.32;1.77;;;6.50;99.90;;;;;;5110402;28;20059;-63
2024/01/26 10:42:41;;;;;;;11.85;1.35;;;6.50;99.90;;;;;;5100915;28;20043;-65
2024/01/26 10:45:09;;;;;;;11.50;1.60;;;6.60;99.90;;;;;;5090696;28;20044;-62
2024/01/26 10:47:39;;;;;;;11.45;1.67;;;6.60;99.90;;;;;;5090918;28;20067;-63
2024/01/26 10:50:10;;;;;;;9.45;1.95;;;6.70;99.90;;;;;;5084768;28;20051;-61
2024/01/26 10:52:40;;;;;;;6.07;1.00;;;6.80;99.90;;;;;;5078800;28;20416;-62
2024/01/26 10:55:11;;;;;;;14.93;1.42;;;6.80;99.90;;;;;;5090982;28;20055;-61
2024/01/26 10:57:38;;;;;;;8.27;1.23;;;6.90;99.90;;;;;;5094004;28;20044;-62
2024/01/26 11:00:09;;;;;;;8.38;1.60;;;7.00;99.90;;;;;;5101538;27;20070;-62
2024/01/26 11:02:37;;;;;;;7.70;1.15;;;7.00;99.90;;;;;;5089033;28;20048;-63
2024/01/26 11:05:09;;;;;;;8.35;0.93;;;7.10;99.90;;;;;;5068391;28;20055;-64
2024/01/26 11:07:39;;;;;;;14.02;2.70;;;7.10;99.90;;;;;;5100239;28;20052;-76
2024/01/26 11:10:28;;;;;;;10.90;1.40;;;7.20;99.90;;;;;;5076494;28;20488;-77
2024/01/26 11:13:05;;;;;;;11.55;1.30;;;7.20;99.90;;;;;;5081239;28;20055;-61
2024/01/26 11:15:35;;;;;;;10.95;1.60;;;7.30;99.90;;;;;;5090556;28;20048;-62
2024/01/26 11:18:03;;;;;;;14.48;1.50;;;7.30;99.90;;;;;;5089512;28;20052;-61
2024/01/26 11:20:34;;;;;;;10.40;1.60;;;7.40;99.90;;;;;;5069467;28;20045;-62
2024/01/26 11:23:09;;;;;;;13.35;2.25;;;7.50;99.90;;;;;;5082282;28;20056;-63
2024/01/26 11:25:40;;;;;;;8.32;1.40;;;7.50;99.90;;;;;;5085049;28;20061;-64
2024/01/26 11:28:14;;;;;;;8.35;1.85;;;7.60;99.90;;;;;;5088490;28;20062;-65
2024/01/26 11:30:45;;;;;;;3.83;0.52;;;7.70;99.90;;;;;;5111028;28;20054;-64
2024/01/26 11:33:23;;;;;;;11.85;1.15;;;7.80;99.90;;;;;;5096412;28;20094;-63
2024/01/26 11:36:05;;;;;;;8.77;1.20;;;7.90;99.90;;;;;;5081249;28;20049;-63
2024/01/26 11:38:33;;;;;;;10.40;1.58;;;8.10;99.90;;;;;;5107510;28;20048;-63
2024/01/26 11:41:02;;;;;;;5.68;1.00;;;8.10;99.90;;;;;;5110518;28;20048;-63
2024/01/26 11:43:29;;;;;;;8.88;1.15;;;8.30;99.90;;;;;;5083312;28;20098;-64
2024/01/26 11:45:58;;;;;;;6.65;0.93;;;8.40;99.90;;;;;;5068378;28;20049;-61
2024/01/26 11:48:26;;;;;;;11.30;2.03;;;8.50;99.90;;;;;;5078560;28;20479;-61
2024/01/26 11:50:55;;;;;;;12.38;1.73;;;8.60;99.90;;;;;;5077947;28;20047;-68
2024/01/26 11:53:24;;;;;;;6.67;1.20;;;8.70;99.90;;;;;;5101668;28;20040;-65
2024/01/26 11:55:54;;;;;;;10.15;1.38;;;9.00;99.90;;;;;;5077473;28;20297;-67
2024/01/26 11:58:21;;;;;;;13.18;1.42;;;9.20;99.90;;;;;;5097096;28;20044;-63
2024/01/26 12:00:49;;;;;;;36.65;3.90;;;9.30;99.90;;;;;;5081372;28;20056;-71
2024/01/26 12:03:17;;;;;;;6.45;1.33;;;9.50;99.90;;;;;;5082397;28;20082;-62
2024/01/26 12:05:46;;;;;;;12.02;1.15;;;9.60;99.90;;;;;;5082926;28;20040;-61
2024/01/26 12:08:14;;;;;;;10.07;1.20;;;9.70;99.90;;;;;;5101388;28;20047;-62
2024/01/26 12:10:43;;;;;;;5.90;1.52;;;9.80;99.90;;;;;;5109780;28;20047;-69
2024/01/26 12:13:15;;;;;;;8.48;1.10;;;9.80;99.90;;;;;;5094853;28;20055;-69
2024/01/26 12:15:44;;;;;;;11.35;1.80;;;9.80;99.90;;;;;;5089566;28;20055;-68
2024/01/26 12:18:12;;;;;;;17.20;1.80;;;9.90;99.90;;;;;;5082589;28;20051;-70
2024/01/26 12:20:40;;;;;;;6.15;1.33;;;10.00;99.90;;;;;;5084367;28;20296;-69
2024/01/26 12:23:19;;;;;;;10.50;1.25;;;10.20;99.90;;;;;;5080785;28;20529;-69
2024/01/26 12:25:54;;;;;;;11.68;1.50;;;10.40;99.90;;;;;;5089478;28;20059;-71
2024/01/26 12:28:28;;;;;;;12.43;1.35;;;10.50;99.90;;;;;;5093854;28;20075;-62
2024/01/26 12:30:56;;;;;;;6.72;0.80;;;10.60;99.90;;;;;;5109497;28;20050;-62
2024/01/26 12:33:23;;;;;;;7.75;1.23;;;10.70;99.90;;;;;;5092642;28;20055;-61
2024/01/26 12:35:52;;;;;;;7.88;1.35;;;10.90;99.90;;;;;;5072917;28;20526;-61
2024/01/26 12:38:20;;;;;;;7.03;1.00;;;11.00;99.90;;;;;;5105587;28;20500;-62
2024/01/26 12:40:47;;;;;;;13.90;1.13;;;11.20;99.90;;;;;;5109406;28;20052;-61
2024/01/26 12:43:16;;;;;;;10.75;1.88;;;11.20;99.90;;;;;;5095290;28;20495;-61
2024/01/26 12:45:44;;;;;;;12.32;2.35;;;11.30;99.90;;;;;;5088272;28;20048;-62
2024/01/26 12:48:11;;;;;;;9.38;1.60;;;11.40;99.90;;;;;;5093056;28;20066;-62
2024/01/26 12:50:39;;;;;;;8.32;1.20;;;11.50;99.90;;;;;;5081025;28;20044;-61
2024/01/26 12:53:08;;;;;;;14.02;2.13;;;11.70;99.90;;;;;;5082586;28;20052;-62
2024/01/26 12:55:36;;;;;;;5.53;1.00;;;11.80;99.90;;;;;;5088739;28;20415;-62
2024/01/26 12:58:04;;;;;;;9.13;1.67;;;11.90;99.90;;;;;;5080048;28;20043;-61